Time;durP1;ratioP1;P1;durP2;ratioP2;P2;SDS_P1;SDS_P2;PMS_P1;PMS_P2;Temp;Humidity;BMP_temperature;BMP_pressure;BME280_temperature;BME280_humidity;BME280_pressure;Samples;Min_cycle;Max_cycle;Signal;HPM_P1;HPM_P2
2022/04/25 00:03:23;;;;;;;15.50;11.85;;;;;;;9.47;70.16;96496.84;10029933;29;20060;-81
2022/04/25 00:08:44;;;;;;;15.00;12.73;;;;;;;9.47;70.21;96499.63;10055270;29;20057;-80
2022/04/25 00:14:06;;;;;;;16.83;13.32;;;;;;;9.48;70.34;96497.56;10041207;29;20101;-80
2022/04/25 00:19:27;;;;;;;17.45;13.60;;;;;;;9.50;70.56;96498.38;10054350;29;20054;-80
2022/04/25 00:24:50;;;;;;;16.08;12.35;;;;;;;9.49;70.39;96507.34;10042892;29;20386;-81
2022/04/25 00:30:11;;;;;;;17.10;13.45;;;;;;;9.43;70.33;96496.63;10054778;29;20045;-81
2022/04/25 00:35:32;;;;;;;16.08;13.60;;;;;;;9.31;70.21;96493.22;10054296;29;20091;-80
2022/04/25 00:40:53;;;;;;;17.25;13.98;;;;;;;9.23;70.43;96498.34;10040300;29;20053;-80
2022/04/25 00:46:21;;;;;;;19.75;15.13;;;;;;;9.14;70.51;96497.19;10040914;29;20053;-80
2022/04/25 00:51:42;;;;;;;20.83;15.55;;;;;;;9.03;70.69;96498.00;10040915;29;20052;-80
2022/04/25 00:57:04;;;;;;;20.00;14.90;;;;;;;8.91;70.95;96508.47;10039561;29;20053;-80
2022/04/25 01:02:26;;;;;;;18.05;15.20;;;;;;;8.89;71.08;96501.47;10040429;29;20061;-80
2022/04/25 01:07:47;;;;;;;19.17;15.88;;;;;;;8.95;70.97;96508.69;10027779;29;20080;-80
2022/04/25 01:13:08;;;;;;;18.65;15.38;;;;;;;9.03;71.13;96503.56;10051817;29;20056;-80
2022/04/25 01:18:29;;;;;;;18.60;14.93;;;;;;;9.09;70.93;96496.28;10025689;29;20045;-79
2022/04/25 01:29:29;;;;;;;19.33;15.77;;;;;;;9.22;70.92;96497.63;10029485;29;20451;-80
2022/04/25 01:34:50;;;;;;;18.60;15.60;;;;;;;9.23;70.74;96501.13;10037990;29;20120;-80
2022/04/25 01:40:11;;;;;;;20.40;16.35;;;;;;;9.22;70.93;96503.19;10025657;29;20057;-80
2022/04/25 01:45:32;;;;;;;21.02;16.00;;;;;;;9.21;70.91;96498.97;10037855;29;20067;-80
2022/04/25 01:50:53;;;;;;;21.90;17.20;;;;;;;9.19;70.87;96496.06;10037516;29;20401;-80
2022/04/25 01:56:14;;;;;;;27.25;18.27;;;;;;;9.20;70.80;96500.31;10037922;29;20053;-80
2022/04/25 02:01:35;;;;;;;23.02;16.38;;;;;;;9.18;70.88;96503.72;10050369;29;20045;-80
2022/04/25 02:06:56;;;;;;;23.67;17.20;;;;;;;9.18;70.94;96500.22;10050352;29;20049;-80
2022/04/25 02:12:17;;;;;;;26.10;16.75;;;;;;;9.24;70.71;96510.94;10043287;29;20042;-80
2022/04/25 02:17:39;;;;;;;23.95;17.67;;;;;;;9.25;70.98;96506.81;10026292;29;20045;-80
2022/04/25 02:23:00;;;;;;;26.17;18.27;;;;;;;9.26;70.91;96514.53;10046660;29;20041;-80
2022/04/25 02:28:21;;;;;;;25.92;17.83;;;;;;;9.26;70.74;96514.53;10054690;29;20738;-80
2022/04/25 02:33:42;;;;;;;23.80;17.73;;;;;;;9.27;70.99;96516.00;10064968;29;20057;-80
2022/04/25 02:39:03;;;;;;;22.88;16.60;;;;;;;9.27;70.84;96529.19;10062900;29;20038;-80
2022/04/25 02:44:23;;;;;;;21.92;16.60;;;;;;;9.24;70.96;96511.66;10047643;29;20042;-80
2022/04/25 02:49:45;;;;;;;17.58;14.43;;;;;;;9.26;70.64;96520.09;10051235;29;20054;-80
2022/04/25 02:55:06;;;;;;;19.50;13.57;;;;;;;9.25;70.77;96509.59;10043831;29;20052;-80
2022/04/25 03:00:26;;;;;;;18.25;14.02;;;;;;;9.25;71.08;96529.78;10043788;29;20042;-80
2022/04/25 03:05:48;;;;;;;18.83;15.20;;;;;;;9.24;70.78;96528.34;10032616;29;20175;-80
2022/04/25 03:11:09;;;;;;;16.90;13.27;;;;;;;9.26;71.11;96527.72;10031846;29;20045;-80
2022/04/25 03:16:30;;;;;;;17.33;13.52;;;;;;;9.23;70.59;96521.34;10043358;29;20041;-80
2022/04/25 03:21:51;;;;;;;18.17;13.65;;;;;;;9.25;70.73;96534.66;10043400;29;20366;-80
2022/04/25 03:27:12;;;;;;;17.63;13.73;;;;;;;9.25;70.94;96538.16;10031094;29;20050;-80
2022/04/25 03:32:34;;;;;;;17.35;13.50;;;;;;;9.21;71.37;96531.66;10030431;29;20037;-80
2022/04/25 03:37:55;;;;;;;17.05;12.75;;;;;;;9.23;70.96;96534.53;10031106;29;20050;-80
2022/04/25 03:43:17;;;;;;;19.42;14.07;;;;;;;9.19;71.28;96532.28;10045408;29;20045;-80
2022/04/25 03:48:40;;;;;;;18.55;12.75;;;;;;;9.20;70.99;96539.28;10043670;29;20049;-80
2022/04/25 03:54:00;;;;;;;17.52;13.68;;;;;;;9.20;71.35;96533.72;10059663;29;20048;-80
2022/04/25 03:59:21;;;;;;;19.88;13.43;;;;;;;9.19;71.37;96540.63;10051320;29;20041;-80
2022/04/25 04:04:42;;;;;;;16.52;11.82;;;;;;;9.19;71.74;96551.75;10052536;29;20048;-80
2022/04/25 04:10:03;;;;;;;15.98;12.18;;;;;;;9.16;72.09;96550.91;10053363;29;20477;-80
2022/04/25 04:15:25;;;;;;;17.27;11.20;;;;;;;9.17;72.14;96560.00;10052075;29;20061;-79
2022/04/25 04:20:46;;;;;;;15.45;10.48;;;;;;;9.18;72.35;96567.75;10058499;29;20060;-79
2022/04/25 04:26:07;;;;;;;14.68;10.35;;;;;;;9.18;72.42;96572.59;10043084;29;20038;-80
2022/04/25 04:31:28;;;;;;;11.93;9.02;;;;;;;9.17;72.46;96582.28;10033566;29;20056;-80
2022/04/25 04:36:50;;;;;;;15.30;11.65;;;;;;;9.18;72.46;96575.38;10045957;29;20038;-80
2022/04/25 04:42:11;;;;;;;13.52;10.30;;;;;;;9.19;72.18;96587.97;10053393;29;20420;-80
2022/04/25 04:47:34;;;;;;;12.48;10.27;;;;;;;9.18;72.80;96589.31;10066666;29;20124;-80
2022/04/25 04:52:59;;;;;;;13.27;10.25;;;;;;;9.18;72.52;96594.88;10061426;29;20152;-79
2022/04/25 04:58:20;;;;;;;13.38;10.85;;;;;;;9.22;73.03;96606.22;10045743;29;20047;-80
2022/04/25 05:03:43;;;;;;;13.90;10.00;;;;;;;9.25;72.97;96607.75;10050294;29;20064;-80
2022/04/25 05:09:04;;;;;;;11.07;9.18;;;;;;;9.25;72.90;96621.69;10065282;29;20117;-85
2022/04/25 05:14:25;;;;;;;11.68;9.05;;;;;;;9.27;73.18;96621.09;10085230;29;20025;-84
2022/04/25 05:19:46;;;;;;;9.35;7.90;;;;;;;9.28;72.93;96623.25;10059427;29;20033;-84
2022/04/25 05:25:09;;;;;;;8.93;7.45;;;;;;;9.33;73.23;96636.06;10085049;29;20038;-84
2022/04/25 05:36:46;;;;;;;;;;;;;;;9.34;73.61;96643.06;10111338;24;20052;-81
2022/04/25 05:42:08;;;;;;;9.82;7.60;;;;;;;9.38;73.53;96642.59;10094880;29;19914;-81
2022/04/25 05:47:30;;;;;;;10.60;8.45;;;;;;;9.32;73.70;96653.38;10057600;29;20065;-81
2022/04/25 05:52:54;;;;;;;13.07;9.60;;;;;;;9.21;74.08;96665.31;10082941;29;20044;-80
2022/04/25 05:58:18;;;;;;;14.50;9.77;;;;;;;9.18;74.00;96670.75;10070235;29;20045;-81
2022/04/25 06:03:40;;;;;;;11.77;8.60;;;;;;;9.22;74.29;96666.75;10082782;29;20417;-84
2022/04/25 06:09:03;;;;;;;11.43;7.97;;;;;;;9.18;74.10;96672.81;10054593;29;20037;-82
2022/04/25 06:14:24;;;;;;;6.53;5.35;;;;;;;9.15;73.95;96688.66;10081703;29;20029;-79
2022/04/25 06:19:46;;;;;;;5.65;4.50;;;;;;;9.20;73.96;96695.22;10082111;29;20040;-80
2022/04/25 06:25:09;;;;;;;5.00;2.70;;;;;;;9.25;73.86;96698.94;10069422;29;20045;-81
2022/04/25 06:30:37;;;;;;;4.13;2.50;;;;;;;9.20;74.20;96705.63;10070433;29;20119;-80
2022/04/25 06:36:00;;;;;;;2.63;2.10;;;;;;;9.23;73.84;96709.97;10043796;29;20056;-82
2022/04/25 06:41:22;;;;;;;2.72;1.67;;;;;;;9.26;73.71;96725.44;10028483;29;20042;-85
2022/04/25 06:46:44;;;;;;;2.78;1.55;;;;;;;9.18;74.05;96728.50;10007042;29;20087;-85
2022/04/25 06:58:30;;;;;;;4.35;2.13;;;;;;;9.35;73.94;96744.03;10004376;29;20030;-79
2022/04/25 07:03:53;;;;;;;4.13;2.22;;;;;;;9.38;73.88;96749.13;9993688;29;20053;-85
2022/04/25 07:09:15;;;;;;;2.60;2.13;;;;;;;9.51;73.45;96761.66;10044924;29;20041;-85
2022/04/25 07:14:37;;;;;;;3.05;2.45;;;;;;;9.62;73.17;96765.75;10018976;29;20046;-85
2022/04/25 07:19:59;;;;;;;2.60;2.40;;;;;;;9.85;72.92;96764.91;10018877;29;20098;-83
2022/04/25 07:31:01;;;;;;;2.78;2.42;;;;;;;10.48;72.04;96777.38;10037056;29;20035;-85
2022/04/25 07:36:24;;;;;;;6.43;2.65;;;;;;;10.75;71.51;96781.53;10024375;29;20034;-86
2022/04/25 07:41:47;;;;;;;2.80;2.60;;;;;;;10.83;71.20;96793.13;10036300;29;20062;-85
2022/04/25 07:47:09;;;;;;;4.13;2.97;;;;;;;11.09;71.20;96802.09;10022482;29;20050;-86
2022/04/25 07:52:30;;;;;;;3.85;2.72;;;;;;;11.70;70.79;96797.44;10035021;29;20042;-85
2022/04/25 07:57:52;;;;;;;4.25;3.03;;;;;;;12.28;68.06;96807.16;10034420;29;20054;-80
2022/04/25 08:03:13;;;;;;;4.28;3.20;;;;;;;12.68;68.26;96821.53;10034068;29;20046;-85
2022/04/25 08:08:34;;;;;;;4.15;2.95;;;;;;;12.65;67.02;96822.06;10035552;29;20099;-85
2022/04/25 08:19:37;;;;;;;4.32;2.67;;;;;;;12.25;67.38;96838.44;10038090;29;20030;-83
2022/04/25 08:25:01;;;;;;;6.63;3.00;;;;;;;12.36;67.92;96842.47;10035605;29;20049;-83
2022/04/25 08:30:22;;;;;;;3.47;2.60;;;;;;;12.48;67.15;96854.22;10035621;29;20045;-85
2022/04/25 08:35:43;;;;;;;3.55;3.05;;;;;;;12.76;65.93;96855.50;10035010;29;20034;-85
2022/04/25 08:41:06;;;;;;;3.50;2.85;;;;;;;12.99;65.40;96859.28;10201490;24;20078;-85
2022/04/25 08:46:28;;;;;;;5.13;3.13;;;;;;;13.60;63.45;96879.44;10086936;29;20041;-84
2022/04/25 09:04:21;;;;;;;3.88;3.05;;;;;;;14.20;62.51;96896.59;10248982;23;20066;-84
2022/04/25 09:15:58;;;;;;;3.88;3.45;;;;;;;14.39;59.98;96918.41;10278885;23;20100;-82
2022/04/25 09:28:15;;;;;;;4.40;2.50;;;;;;;14.42;57.50;96936.78;12292322;23;20020;31
2022/04/25 09:52:25;;;;;;;4.60;2.58;;;;;;;15.19;55.42;96953.09;11047513;23;20071;-77
2022/04/25 09:57:56;;;;;;;5.80;2.40;;;;;;;15.40;54.86;96957.34;10329136;23;20097;-77
2022/04/25 10:03:17;;;;;;;3.88;2.42;;;;;;;15.14;53.57;96969.06;10094210;29;20072;-77
2022/04/25 10:08:40;;;;;;;5.15;2.42;;;;;;;15.32;54.11;96971.81;10051909;29;20511;-78
2022/04/25 10:14:01;;;;;;;3.95;2.50;;;;;;;14.92;53.87;96982.28;10090174;29;20045;-77
2022/04/25 10:19:26;;;;;;;5.03;2.70;;;;;;;14.76;53.08;96987.25;10670760;24;20051;-79
2022/04/25 10:25:07;;;;;;;2.95;2.50;;;;;;;15.11;53.58;96990.03;10834217;23;20078;-78
2022/04/25 10:30:45;;;;;;;3.97;2.67;;;;;;;15.34;52.86;96993.66;10409709;24;20603;-78
2022/04/25 10:36:06;;;;;;;3.28;2.95;;;;;;;15.24;52.47;97001.72;10050001;29;20074;-78
2022/04/25 10:47:21;;;;;;;6.40;2.80;;;;;;;15.25;51.73;97011.59;10046067;29;20079;-77
2022/04/25 10:52:53;;;;;;;3.95;3.28;;;;;;;15.12;51.82;97021.69;10040013;29;20050;-76
2022/04/25 10:58:15;;;;;;;4.85;3.20;;;;;;;15.27;50.21;97023.66;10061135;29;20066;-77
2022/04/25 11:03:36;;;;;;;4.50;3.28;;;;;;;15.49;49.50;97034.28;10037610;29;20110;-77
2022/04/25 11:08:57;;;;;;;3.75;3.08;;;;;;;15.37;48.30;97043.72;10020743;29;20048;-77
2022/04/25 11:14:18;;;;;;;4.45;3.08;;;;;;;14.83;48.78;97047.94;10339661;24;20043;-80
2022/04/25 11:32:26;;;;;;;7.93;5.32;;;;;;;13.30;51.00;97089.06;10036380;27;20071;-81
2022/04/25 11:37:47;;;;;;;8.80;7.32;;;;;;;12.84;51.81;97101.59;11223505;23;20053;-78
2022/04/25 11:43:10;;;;;;;11.20;9.02;;;;;;;12.58;52.81;97109.41;10114448;29;20123;-80
2022/04/25 11:48:31;;;;;;;13.35;10.15;;;;;;;12.36;53.86;97117.44;10113245;29;20033;-80
2022/04/25 11:53:53;;;;;;;12.30;10.35;;;;;;;12.32;53.96;97109.53;10112038;29;20040;-81
2022/04/25 11:59:15;;;;;;;13.90;10.82;;;;;;;12.42;53.48;97125.41;10125704;29;20085;-80
2022/04/25 12:04:38;;;;;;;15.48;11.50;;;;;;;12.64;53.54;97134.19;10120543;29;20033;-81
2022/04/25 12:15:46;;;;;;;13.88;10.82;;;;;;;13.42;52.82;97142.91;10135711;29;20041;-81
2022/04/25 12:21:14;;;;;;;11.30;9.05;;;;;;;13.59;52.12;97147.19;10135997;29;20041;-81
2022/04/25 12:26:35;;;;;;;11.55;9.23;;;;;;;13.87;52.24;97158.97;10098716;29;20040;-79
2022/04/25 12:31:58;;;;;;;9.57;8.02;;;;;;;14.70;51.25;97164.00;10112188;29;20029;-79
2022/04/25 12:37:19;;;;;;;9.57;7.95;;;;;;;15.18;50.84;97171.63;10125490;29;20047;-79
2022/04/25 12:42:45;;;;;;;12.68;7.68;;;;;;;15.56;49.78;97168.91;10133275;29;20488;-76
2022/04/25 12:48:06;;;;;;;9.60;7.38;;;;;;;15.23;49.23;97178.13;10098969;29;20097;-79
2022/04/25 12:53:40;;;;;;;7.55;6.75;;;;;;;15.20;49.63;97181.50;10109852;29;20055;-77
2022/04/25 12:59:01;;;;;;;9.30;6.45;;;;;;;15.34;49.44;97190.50;10107488;29;20041;-77
2022/04/25 13:04:23;;;;;;;8.93;6.50;;;;;;;15.31;49.15;97200.22;10121539;29;20029;-77
2022/04/25 13:09:44;;;;;;;7.00;5.60;;;;;;;15.29;49.28;97197.34;10099604;29;20053;-77
2022/04/25 13:15:14;;;;;;;6.65;5.75;;;;;;;15.56;48.96;97199.84;10103923;29;20378;-77
2022/04/25 13:20:35;;;;;;;7.15;5.82;;;;;;;15.17;48.28;97209.53;10115867;29;20041;-77
2022/04/25 13:25:56;;;;;;;7.32;5.30;;;;;;;14.67;49.25;97225.00;10122169;29;20029;-79
2022/04/25 13:31:17;;;;;;;6.47;5.07;;;;;;;14.73;49.00;97230.13;10549529;24;20050;-78
2022/04/25 13:36:38;;;;;;;8.52;6.18;;;;;;;14.64;49.06;97226.25;10507985;24;20054;-78
2022/04/25 13:42:01;;;;;;;10.95;6.72;;;;;;;14.50;48.97;97228.44;10045923;29;20037;-79
2022/04/25 13:47:22;;;;;;;9.97;7.50;;;;;;;14.52;49.49;97242.56;10046630;29;20101;-79
2022/04/25 13:52:43;;;;;;;8.88;7.80;;;;;;;15.06;48.88;97249.13;10017770;29;20054;-77
2022/04/25 13:58:05;;;;;;;11.35;7.88;;;;;;;15.32;48.36;97246.66;10003285;29;20068;-77
2022/04/25 14:03:27;;;;;;;9.02;7.40;;;;;;;14.80;47.88;97257.84;10043859;29;20041;-78
2022/04/25 14:08:49;;;;;;;9.05;7.43;;;;;;;14.68;48.27;97259.44;10044821;29;20050;-79
2022/04/25 14:14:16;;;;;;;10.07;7.50;;;;;;;14.60;48.65;97260.50;10058488;29;20050;-79
2022/04/25 14:19:46;;;;;;;8.80;6.90;;;;;;;14.26;48.50;97272.97;10528229;24;20092;31
2022/04/25 14:25:08;;;;;;;8.93;6.88;;;;;;;13.93;48.88;97267.97;9968190;29;20082;-79
2022/04/25 14:30:32;;;;;;;10.35;6.70;;;;;;;13.64;49.51;97280.63;9980285;29;20076;-79
2022/04/25 14:35:54;;;;;;;;;;;;;;;13.61;50.08;97283.97;9972282;29;20039;-79
2022/04/25 14:41:16;;;;;;;9.10;6.72;;;;;;;13.70;49.49;97285.78;9986893;29;19925;-80
2022/04/25 14:46:37;;;;;;;7.13;6.43;;;;;;;14.04;49.00;97293.03;9999440;29;20039;-78
2022/04/25 14:57:40;;;;;;;8.98;6.32;;;;;;;14.31;48.81;97299.88;10092949;29;20049;-79
2022/04/25 15:03:01;;;;;;;7.90;6.97;;;;;;;14.31;48.74;97299.88;10100875;29;20033;-79
2022/04/25 15:27:39;;;;;;;7.47;6.57;;;;;;;13.53;49.24;97328.44;11747121;23;20032;31
2022/04/25 15:33:01;;;;;;;7.72;6.70;;;;;;;13.36;48.96;97327.63;10060861;29;20094;-80
2022/04/25 15:38:23;;;;;;;8.27;6.70;;;;;;;13.25;49.00;97331.28;10049651;29;20038;-81
2022/04/25 15:43:45;;;;;;;10.85;6.85;;;;;;;13.14;49.55;97337.69;10040155;29;20061;-77
2022/04/25 15:49:06;;;;;;;10.02;8.50;;;;;;;12.96;49.17;97337.50;10013248;29;20466;-77
2022/04/25 16:00:07;;;;;;;8.88;7.13;;;;;;;12.67;50.05;97342.97;10003967;29;20110;-77
2022/04/25 16:05:28;;;;;;;7.25;6.55;;;;;;;12.43;49.58;97350.78;10001464;29;20049;-77
2022/04/25 16:10:49;;;;;;;8.95;6.65;;;;;;;12.06;50.22;97348.78;10014318;29;20070;-78
2022/04/25 16:16:10;;;;;;;8.25;7.45;;;;;;;11.82;50.91;97348.16;10004580;29;20046;-78
2022/04/25 16:21:30;;;;;;;7.28;5.70;;;;;;;11.74;50.98;97353.25;10026492;29;20045;-77
2022/04/25 16:26:51;;;;;;;8.75;7.55;;;;;;;11.62;51.60;97347.72;10001700;29;20053;-79
2022/04/25 16:32:18;;;;;;;9.68;7.43;;;;;;;11.52;51.58;97349.22;10006061;29;20057;-79
2022/04/25 16:37:39;;;;;;;8.35;6.95;;;;;;;11.41;51.77;97356.28;9998858;29;20061;-78
2022/04/25 16:43:00;;;;;;;11.07;8.63;;;;;;;11.23;51.63;97361.53;9955973;29;20043;-77
2022/04/25 16:48:22;;;;;;;11.50;8.20;;;;;;;11.10;52.45;97374.06;9949880;29;20050;-78
2022/04/25 16:53:43;;;;;;;10.10;8.10;;;;;;;10.94;53.08;97381.47;9981315;29;20054;-80
2022/04/25 16:59:03;;;;;;;11.05;7.45;;;;;;;10.84;52.48;97376.00;9948475;29;20054;-78
2022/04/25 17:04:24;;;;;;;10.82;8.05;;;;;;;10.60;53.31;97385.66;9973340;29;20463;-78
2022/04/25 17:09:45;;;;;;;12.10;8.95;;;;;;;10.45;53.77;97388.94;9975174;29;20521;-77
2022/04/25 17:15:06;;;;;;;11.10;8.35;;;;;;;10.37;53.81;97389.16;9974010;29;20454;-76
2022/04/25 17:20:28;;;;;;;8.98;7.55;;;;;;;10.34;54.29;97400.78;9947744;29;20042;-76
2022/04/25 17:25:49;;;;;;;11.18;7.32;;;;;;;10.24;54.60;97398.81;9959727;29;20050;-75
